Time;durP1;ratioP1;P1;durP2;ratioP2;P2;SDS_P1;SDS_P2;PMS_P1;PMS_P2;Temp;Humidity;BMP_temperature;BMP_pressure;BME280_temperature;BME280_humidity;BME280_pressure;Samples;Min_cycle;Max_cycle;Signal;HPM_P1;HPM_P2
2022/04/06 00:01:42;;;;;;;6.93;4.10;;;;;;;;;;5027428;28;20022;-72
2022/04/06 00:04:08;;;;;;;6.40;4.40;;;;;;;;;;5012276;28;20764;-72
2022/04/06 00:06:34;;;;;;;5.27;4.03;;;;;;;;;;5026438;28;20022;-73
2022/04/06 00:09:00;;;;;;;6.97;3.87;;;;;;;;;;5010738;28;20037;-72
2022/04/06 00:11:25;;;;;;;5.43;4.50;;;;;;;;;;5027169;28;20065;-72
2022/04/06 00:13:51;;;;;;;5.63;4.03;;;;;;;;;;5026684;28;20111;-72
2022/04/06 00:16:17;;;;;;;6.63;3.80;;;;;;;;;;5027063;28;20036;-72
2022/04/06 00:18:42;;;;;;;5.20;4.20;;;;;;;;;;5026589;28;20453;-72
2022/04/06 00:21:09;;;;;;;5.67;4.20;;;;;;;;;;5026884;28;20022;-72
2022/04/06 00:23:34;;;;;;;6.13;4.37;;;;;;;;;;5010529;28;20121;-72
2022/04/06 00:26:00;;;;;;;5.13;3.90;;;;;;;;;;5027349;28;20117;-72
2022/04/06 00:28:26;;;;;;;7.53;4.80;;;;;;;;;;5011920;28;20045;-72
2022/04/06 00:30:52;;;;;;;8.00;4.37;;;;;;;;;;5026878;28;20022;-72
2022/04/06 00:33:18;;;;;;;6.83;4.07;;;;;;;;;;5010251;28;20030;-72
2022/04/06 00:35:43;;;;;;;5.23;4.23;;;;;;;;;;4993948;28;20030;-72
2022/04/06 00:38:09;;;;;;;6.07;4.10;;;;;;;;;;5011664;28;20493;-73
2022/04/06 00:40:35;;;;;;;5.97;4.27;;;;;;;;;;5011459;28;20477;-74
2022/04/06 00:43:07;;;;;;;5.93;4.50;;;;;;;;;;5010219;28;20034;-73
2022/04/06 00:45:33;;;;;;;6.45;4.25;;;;;;;;;;5026819;28;20029;-73
2022/04/06 00:47:58;;;;;;;5.67;4.23;;;;;;;;;;5026655;28;20038;-73
2022/04/06 00:50:25;;;;;;;5.87;4.70;;;;;;;;;;5026699;28;20120;-73
2022/04/06 00:52:55;;;;;;;7.57;4.77;;;;;;;;;;5026629;28;20053;-74
2022/04/06 00:55:23;;;;;;;6.90;4.70;;;;;;;;;;5011222;28;20034;-74
2022/04/06 00:57:51;;;;;;;7.33;4.83;;;;;;;;;;4993719;28;20133;-73
2022/04/06 01:00:17;;;;;;;7.37;5.10;;;;;;;;;;5026198;28;20030;-73
2022/04/06 01:02:43;;;;;;;6.50;4.53;;;;;;;;;;4993230;28;20087;-73
2022/04/06 01:05:09;;;;;;;5.83;4.27;;;;;;;;;;5011212;28;20402;-72
2022/04/06 01:07:35;;;;;;;9.47;5.43;;;;;;;;;;5009809;28;20069;-73
2022/04/06 01:10:01;;;;;;;7.37;4.60;;;;;;;;;;5026056;28;20071;-73
2022/04/06 01:12:28;;;;;;;5.13;4.10;;;;;;;;;;5026304;28;20141;-73
2022/04/06 01:14:54;;;;;;;7.40;4.90;;;;;;;;;;5025839;28;20030;-73
2022/04/06 01:17:20;;;;;;;8.10;4.90;;;;;;;;;;5026025;28;20034;-73
2022/04/06 01:19:51;;;;;;;6.47;4.57;;;;;;;;;;5025892;28;20402;-73
2022/04/06 01:22:19;;;;;;;6.47;4.47;;;;;;;;;;5026097;28;20022;-73
2022/04/06 01:24:46;;;;;;;6.10;4.97;;;;;;;;;;5025466;28;20033;-73
2022/04/06 01:27:13;;;;;;;7.20;5.43;;;;;;;;;;5026686;28;20030;-74
2022/04/06 01:29:40;;;;;;;6.40;4.87;;;;;;;;;;5026167;28;20034;-73
2022/04/06 01:32:21;;;;;;;7.37;4.60;;;;;;;;;;5026348;28;20030;-73
2022/04/06 01:34:47;;;;;;;6.73;5.07;;;;;;;;;;5013701;28;20183;-73
2022/04/06 01:37:15;;;;;;;8.07;5.60;;;;;;;;;;5017339;28;20533;-73
2022/04/06 01:39:44;;;;;;;9.60;5.20;;;;;;;;;;5018200;28;20038;-74
2022/04/06 01:42:15;;;;;;;8.33;5.13;;;;;;;;;;5030688;28;20125;-72
2022/04/06 01:44:41;;;;;;;8.07;5.70;;;;;;;;;;5026276;28;20034;-72
2022/04/06 01:47:07;;;;;;;7.47;5.43;;;;;;;;;;5009539;28;20026;-73
2022/04/06 01:52:19;;;;;;;8.60;5.57;;;;;;;;;;5010828;28;20090;-73
2022/04/06 01:54:53;;;;;;;8.43;5.37;;;;;;;;;;5024980;28;20018;-73
2022/04/06 01:57:20;;;;;;;7.17;5.43;;;;;;;;;;5025375;28;20029;-73
2022/04/06 01:59:46;;;;;;;7.67;5.30;;;;;;;;;;5024968;28;20036;-72
2022/04/06 02:02:14;;;;;;;8.10;5.63;;;;;;;;;;5025501;28;20029;-73
2022/04/06 02:04:41;;;;;;;6.73;4.87;;;;;;;;;;5025055;28;20033;-74
2022/04/06 02:07:10;;;;;;;9.27;5.50;;;;;;;;;;5009099;28;20034;-74
2022/04/06 02:09:36;;;;;;;7.53;5.57;;;;;;;;;;5025265;28;20037;-73
2022/04/06 02:12:04;;;;;;;9.87;5.90;;;;;;;;;;5025287;28;20043;-74
2022/04/06 02:14:29;;;;;;;9.57;6.03;;;;;;;;;;5008632;28;20363;-73
2022/04/06 02:16:55;;;;;;;8.67;5.90;;;;;;;;;;5024920;28;20030;-72
2022/04/06 02:19:21;;;;;;;10.33;6.63;;;;;;;;;;5024848;28;20046;-73
2022/04/06 02:21:47;;;;;;;10.07;6.07;;;;;;;;;;5024773;28;20036;-73
2022/04/06 02:24:13;;;;;;;9.57;6.83;;;;;;;;;;5024777;28;20030;-73
2022/04/06 02:26:39;;;;;;;9.80;6.40;;;;;;;;;;5009778;28;20084;-74
2022/04/06 02:29:05;;;;;;;9.77;6.90;;;;;;;;;;4993877;28;20322;-74
2022/04/06 02:31:32;;;;;;;8.97;6.30;;;;;;;;;;5031555;28;20037;-74
2022/04/06 02:33:58;;;;;;;9.07;6.33;;;;;;;;;;5016545;28;20042;-74
2022/04/06 02:36:24;;;;;;;10.63;7.33;;;;;;;;;;5014866;28;20535;-74
2022/04/06 02:38:50;;;;;;;11.40;6.67;;;;;;;;;;4998279;28;20034;-74
2022/04/06 02:41:16;;;;;;;12.57;7.53;;;;;;;;;;5031300;28;20029;-74
2022/04/06 02:43:41;;;;;;;8.43;6.60;;;;;;;;;;5014853;28;20030;-73
2022/04/06 02:46:07;;;;;;;10.50;7.10;;;;;;;;;;5031477;28;20026;-73
2022/04/06 02:48:33;;;;;;;8.23;6.20;;;;;;;;;;5031430;28;20021;-73
2022/04/06 02:50:59;;;;;;;11.97;7.67;;;;;;;;;;5031124;28;20034;-74
2022/04/06 02:53:24;;;;;;;10.37;7.17;;;;;;;;;;5015027;28;20718;-72
2022/04/06 02:55:50;;;;;;;11.03;7.30;;;;;;;;;;5014666;28;20389;-74
2022/04/06 02:58:16;;;;;;;9.63;6.97;;;;;;;;;;5031245;28;20645;-73
2022/04/06 03:00:42;;;;;;;10.70;7.40;;;;;;;;;;5030993;28;20547;-71
2022/04/06 03:03:08;;;;;;;10.70;7.53;;;;;;;;;;5030999;28;20049;-73
2022/04/06 03:05:35;;;;;;;8.90;6.60;;;;;;;;;;5031219;28;20030;-73
2022/04/06 03:08:00;;;;;;;8.90;6.60;;;;;;;;;;5030996;28;20038;-74
2022/04/06 03:10:28;;;;;;;10.60;7.33;;;;;;;;;;5031299;28;20026;-73
2022/04/06 03:12:53;;;;;;;9.07;6.97;;;;;;;;;;4998069;28;20046;-73
2022/04/06 03:15:19;;;;;;;10.00;6.33;;;;;;;;;;5031037;28;20088;-73
2022/04/06 03:17:45;;;;;;;10.23;6.77;;;;;;;;;;5014426;28;20061;-74
2022/04/06 03:20:14;;;;;;;8.63;6.33;;;;;;;;;;5014682;28;20037;-72
2022/04/06 03:22:43;;;;;;;8.77;5.97;;;;;;;;;;5014970;28;20026;-72
2022/04/06 03:25:10;;;;;;;9.53;7.17;;;;;;;;;;5014286;28;20413;-72
2022/04/06 03:27:37;;;;;;;8.43;6.40;;;;;;;;;;5032633;28;20038;-74
2022/04/06 03:30:10;;;;;;;9.93;6.53;;;;;;;;;;5015268;28;20099;-73
2022/04/06 03:32:38;;;;;;;9.17;5.57;;;;;;;;;;5015004;28;20075;-74
2022/04/06 03:35:04;;;;;;;7.73;5.77;;;;;;;;;;5014390;28;20029;-74
2022/04/06 03:37:30;;;;;;;8.53;5.73;;;;;;;;;;5030533;28;20036;-74
2022/04/06 03:39:56;;;;;;;6.97;5.50;;;;;;;;;;5014412;28;20120;-73
2022/04/06 03:42:23;;;;;;;7.90;5.30;;;;;;;;;;5026682;28;20427;-73
2022/04/06 03:44:49;;;;;;;7.53;5.60;;;;;;;;;;5010994;28;20034;-72
2022/04/06 03:47:15;;;;;;;8.47;5.03;;;;;;;;;;5027543;28;20060;-73
2022/04/06 03:49:41;;;;;;;6.40;4.67;;;;;;;;;;5013022;28;20562;-73
2022/04/06 03:52:07;;;;;;;7.77;5.67;;;;;;;;;;5011053;28;20120;-73
2022/04/06 03:54:33;;;;;;;8.20;5.77;;;;;;;;;;5028033;28;20026;-74
2022/04/06 03:56:58;;;;;;;7.83;5.23;;;;;;;;;;5027511;28;20052;-73
2022/04/06 03:59:24;;;;;;;7.37;5.00;;;;;;;;;;5011408;28;20033;-73
2022/04/06 04:01:50;;;;;;;9.20;5.00;;;;;;;;;;5010690;28;20038;-74
2022/04/06 04:04:17;;;;;;;7.03;5.20;;;;;;;;;;5027382;28;20029;-74
2022/04/06 04:06:42;;;;;;;7.87;4.80;;;;;;;;;;5028372;28;20026;-74
2022/04/06 04:09:08;;;;;;;8.27;5.10;;;;;;;;;;5027641;28;20037;-73
2022/04/06 04:11:34;;;;;;;8.00;5.13;;;;;;;;;;5027092;28;20026;-74
2022/04/06 04:14:00;;;;;;;10.80;5.30;;;;;;;;;;5027280;28;20030;-73
2022/04/06 04:16:25;;;;;;;7.73;5.43;;;;;;;;;;5010835;28;20037;-73
2022/04/06 04:18:51;;;;;;;11.93;5.40;;;;;;;;;;5027057;28;20058;-74
2022/04/06 04:21:32;;;;;;;8.73;5.20;;;;;;;;;;5007434;28;20478;-74
2022/04/06 04:23:58;;;;;;;7.80;4.60;;;;;;;;;;5007274;28;20044;-73
2022/04/06 04:26:24;;;;;;;8.80;5.07;;;;;;;;;;5007914;28;20034;-73
2022/04/06 04:28:50;;;;;;;6.93;4.83;;;;;;;;;;4976616;28;20517;-73
2022/04/06 04:31:17;;;;;;;9.90;5.20;;;;;;;;;;5018958;28;20038;-73
2022/04/06 04:33:44;;;;;;;10.93;4.80;;;;;;;;;;5009205;28;20038;-71
2022/04/06 04:36:10;;;;;;;8.40;4.50;;;;;;;;;;5024055;28;20038;-73
2022/04/06 04:38:38;;;;;;;7.63;4.63;;;;;;;;;;5024582;28;20049;-73
2022/04/06 04:41:08;;;;;;;9.60;4.80;;;;;;;;;;5024805;28;20037;-72
2022/04/06 04:43:35;;;;;;;5.30;3.97;;;;;;;;;;5011290;28;20109;-72
2022/04/06 04:46:01;;;;;;;7.73;4.43;;;;;;;;;;5010186;28;20118;-74
2022/04/06 04:48:27;;;;;;;6.10;4.10;;;;;;;;;;5025091;28;20109;-75
2022/04/06 04:50:52;;;;;;;6.87;3.97;;;;;;;;;;5022150;28;20057;-73
2022/04/06 04:53:18;;;;;;;6.60;3.87;;;;;;;;;;5005359;28;20033;-73
2022/04/06 04:55:45;;;;;;;6.47;3.70;;;;;;;;;;4978432;28;20494;-74
2022/04/06 04:58:10;;;;;;;6.30;4.17;;;;;;;;;;4997183;28;20085;-74
2022/04/06 05:00:36;;;;;;;5.97;3.73;;;;;;;;;;5021735;28;20037;-73
2022/04/06 05:03:02;;;;;;;5.90;3.63;;;;;;;;;;5018744;28;20121;-73
2022/04/06 05:05:29;;;;;;;5.57;4.30;;;;;;;;;;5006901;28;20046;-74
2022/04/06 05:07:58;;;;;;;5.67;3.93;;;;;;;;;;5006465;28;20398;-75
2022/04/06 05:10:25;;;;;;;10.60;4.00;;;;;;;;;;5006390;28;20027;-74
2022/04/06 05:12:51;;;;;;;7.27;3.57;;;;;;;;;;5006084;28;20026;-73
2022/04/06 05:15:17;;;;;;;4.67;3.67;;;;;;;;;;5006533;28;20029;-73
2022/04/06 05:17:42;;;;;;;6.97;4.00;;;;;;;;;;4973761;28;20031;-77
2022/04/06 05:20:13;;;;;;;5.47;3.67;;;;;;;;;;5007878;28;20061;-75
2022/04/06 05:22:39;;;;;;;5.68;3.53;;;;;;;;;;5026200;28;20613;-74
2022/04/06 05:25:07;;;;;;;7.27;4.40;;;;;;;;;;5025500;28;20127;-75
2022/04/06 05:27:54;;;;;;;4.50;3.40;;;;;;;;;;5010825;28;20026;-73
2022/04/06 05:30:22;;;;;;;5.43;3.93;;;;;;;;;;5009402;28;20040;-73
2022/04/06 05:32:50;;;;;;;7.60;3.97;;;;;;;;;;5025086;28;20390;-74
2022/04/06 05:35:16;;;;;;;4.47;3.47;;;;;;;;;;5025361;28;20387;-73
2022/04/06 05:37:45;;;;;;;4.90;3.50;;;;;;;;;;5025327;28;20029;-73
2022/04/06 05:40:15;;;;;;;4.43;3.20;;;;;;;;;;5009032;28;20033;-74
2022/04/06 05:42:43;;;;;;;4.37;3.27;;;;;;;;;;5008352;28;20079;-75
2022/04/06 05:45:09;;;;;;;5.30;3.30;;;;;;;;;;5007151;28;20030;-73
2022/04/06 05:47:36;;;;;;;9.67;3.70;;;;;;;;;;5024898;28;20051;-74
2022/04/06 05:50:04;;;;;;;5.37;3.73;;;;;;;;;;5008049;28;20041;-74
2022/04/06 05:52:30;;;;;;;5.87;3.63;;;;;;;;;;4995784;28;20061;-72
2022/04/06 05:54:55;;;;;;;4.73;3.33;;;;;;;;;;4988813;28;20498;-74
2022/04/06 05:57:21;;;;;;;3.67;2.63;;;;;;;;;;5007874;28;20116;-75
2022/04/06 05:59:47;;;;;;;5.83;3.33;;;;;;;;;;4999373;28;20069;-74
2022/04/06 06:02:19;;;;;;;5.10;3.23;;;;;;;;;;5003210;28;20078;-73
2022/04/06 06:04:45;;;;;;;4.28;2.88;;;;;;;;;;5000235;28;20588;-73
2022/04/06 06:07:11;;;;;;;4.33;2.90;;;;;;;;;;5006753;28;20107;-74
2022/04/06 06:09:40;;;;;;;4.40;2.93;;;;;;;;;;4989253;28;20062;-73
2022/04/06 06:12:14;;;;;;;4.13;3.10;;;;;;;;;;5001400;28;20054;-74
2022/04/06 06:14:41;;;;;;;6.20;3.50;;;;;;;;;;4993378;28;20045;-74
2022/04/06 06:17:22;;;;;;;4.93;3.40;;;;;;;;;;5010811;28;20022;-73
2022/04/06 06:19:48;;;;;;;5.80;3.20;;;;;;;;;;4991808;28;20062;-73
2022/04/06 06:22:16;;;;;;;3.57;2.90;;;;;;;;;;4989725;28;20038;-73
2022/04/06 06:24:45;;;;;;;4.93;3.22;;;;;;;;;;4996017;28;20076;-73
2022/04/06 06:27:19;;;;;;;5.67;3.20;;;;;;;;;;5006104;28;20041;-73
2022/04/06 06:29:59;;;;;;;3.83;2.72;;;;;;;;;;4994329;28;20045;-73
2022/04/06 06:32:25;;;;;;;4.87;2.60;;;;;;;;;;5002950;28;20087;-73
2022/04/06 06:34:53;;;;;;;4.00;3.13;;;;;;;;;;4997040;28;20034;-72
2022/04/06 06:37:25;;;;;;;3.58;2.80;;;;;;;;;;5013419;28;20131;-72
2022/04/06 06:39:54;;;;;;;6.80;2.60;;;;;;;;;;5000861;28;20341;-73
2022/04/06 06:42:22;;;;;;;3.30;2.40;;;;;;;;;;4994085;28;20045;-73
2022/04/06 06:44:49;;;;;;;3.17;2.20;;;;;;;;;;5008797;28;20158;-73
2022/04/06 06:47:15;;;;;;;3.92;2.17;;;;;;;;;;4982088;28;20046;-74
2022/04/06 06:49:46;;;;;;;5.95;2.55;;;;;;;;;;5006764;28;20053;-73
2022/04/06 06:52:18;;;;;;;2.75;1.98;;;;;;;;;;5004481;28;20491;-74
2022/04/06 06:54:44;;;;;;;5.68;2.50;;;;;;;;;;5012274;28;20608;-73
2022/04/06 06:57:11;;;;;;;3.20;2.20;;;;;;;;;;4993978;28;20038;-73
2022/04/06 06:59:37;;;;;;;4.47;2.97;;;;;;;;;;4994016;28;20219;-75
2022/04/06 07:02:14;;;;;;;2.58;1.70;;;;;;;;;;5009279;28;20449;-74
2022/04/06 07:04:40;;;;;;;3.15;1.95;;;;;;;;;;4990432;28;20034;-72
2022/04/06 07:07:09;;;;;;;2.28;1.70;;;;;;;;;;5006228;28;20402;-73
2022/04/06 07:09:35;;;;;;;2.15;1.70;;;;;;;;;;4995976;28;20030;-74
2022/04/06 07:12:01;;;;;;;3.78;1.98;;;;;;;;;;5012930;28;20106;-72
2022/04/06 07:14:27;;;;;;;5.40;1.80;;;;;;;;;;5006613;28;20108;-73
2022/04/06 07:16:53;;;;;;;3.17;1.90;;;;;;;;;;5000307;28;20506;-73
2022/04/06 07:19:21;;;;;;;2.45;1.88;;;;;;;;;;5012428;28;20058;-73
2022/04/06 07:21:47;;;;;;;2.15;1.52;;;;;;;;;;5008569;28;20027;-73
2022/04/06 07:24:13;;;;;;;3.75;2.10;;;;;;;;;;5002158;28;20561;-72
2022/04/06 07:26:39;;;;;;;2.47;1.67;;;;;;;;;;5015295;28;20049;-73
2022/04/06 07:29:06;;;;;;;4.07;1.88;;;;;;;;;;4990400;28;20073;-73
2022/04/06 07:31:32;;;;;;;2.17;1.77;;;;;;;;;;5006343;28;20638;-74
2022/04/06 07:33:59;;;;;;;2.90;2.30;;;;;;;;;;5007212;28;20081;-74
2022/04/06 07:36:25;;;;;;;6.10;2.00;;;;;;;;;;5012132;28;20045;-73
2022/04/06 07:38:51;;;;;;;2.72;2.15;;;;;;;;;;4992690;28;20580;-74
2022/04/06 07:41:17;;;;;;;7.13;2.08;;;;;;;;;;5013852;28;20034;-74
2022/04/06 07:43:45;;;;;;;8.05;2.88;;;;;;;;;;4991268;28;20073;-73
2022/04/06 07:46:12;;;;;;;4.15;1.67;;;;;;;;;;4990163;28;20752;-73
2022/04/06 07:48:41;;;;;;;4.03;1.83;;;;;;;;;;5000686;28;20116;-73
2022/04/06 07:51:23;;;;;;;4.70;2.08;;;;;;;;;;4991865;28;20030;-74
2022/04/06 07:53:51;;;;;;;4.93;2.25;;;;;;;;;;5004892;28;20049;-73
2022/04/06 07:56:19;;;;;;;3.30;2.00;;;;;;;;;;5009082;28;20038;-73
2022/04/06 07:58:56;;;;;;;3.75;1.90;;;;;;;;;;4996235;28;20577;-73
2022/04/06 08:01:22;;;;;;;5.80;2.30;;;;;;;;;;4980677;28;20069;-75
2022/04/06 08:03:48;;;;;;;3.03;1.77;;;;;;;;;;5010565;28;20030;-74
2022/04/06 08:06:14;;;;;;;2.35;1.75;;;;;;;;;;5008082;28;20052;-75
2022/04/06 08:08:40;;;;;;;8.07;2.38;;;;;;;;;;4998574;28;20025;-74
2022/04/06 08:11:08;;;;;;;5.93;2.17;;;;;;;;;;5008132;28;20022;-74
2022/04/06 08:13:33;;;;;;;4.15;2.28;;;;;;;;;;5009050;28;20052;-73
2022/04/06 08:16:00;;;;;;;5.18;2.13;;;;;;;;;;5007710;28;20034;-73
2022/04/06 08:18:26;;;;;;;3.80;2.17;;;;;;;;;;4997315;28;20130;-73
2022/04/06 08:20:59;;;;;;;3.45;2.00;;;;;;;;;;5010296;28;20095;-72
2022/04/06 08:23:26;;;;;;;3.25;2.13;;;;;;;;;;5003181;28;20517;-74
2022/04/06 08:25:53;;;;;;;2.22;1.70;;;;;;;;;;5003848;28;20621;-72
2022/04/06 08:28:19;;;;;;;3.03;2.20;;;;;;;;;;5004833;28;20083;-73
2022/04/06 08:30:47;;;;;;;2.40;1.80;;;;;;;;;;5000615;28;20505;-74
2022/04/06 08:33:16;;;;;;;2.70;1.95;;;;;;;;;;5008201;28;20065;-73
2022/04/06 08:35:48;;;;;;;2.20;1.67;;;;;;;;;;5012691;28;20125;-73
2022/04/06 08:38:18;;;;;;;4.20;2.38;;;;;;;;;;5012652;28;20386;-74
2022/04/06 08:40:48;;;;;;;4.57;1.83;;;;;;;;;;4994265;28;20111;-73
2022/04/06 08:43:21;;;;;;;8.60;1.98;;;;;;;;;;5006292;28;20034;-72
2022/04/06 08:45:50;;;;;;;3.65;1.98;;;;;;;;;;4994148;28;20537;-73
2022/04/06 08:48:21;;;;;;;3.90;1.75;;;;;;;;;;4993618;28;20516;-73
2022/04/06 08:50:51;;;;;;;3.53;2.15;;;;;;;;;;4993578;28;20061;-74
2022/04/06 08:53:20;;;;;;;2.22;1.67;;;;;;;;;;5001707;28;20041;-72
2022/04/06 08:55:46;;;;;;;5.40;2.17;;;;;;;;;;4993417;28;20053;-73
2022/04/06 08:58:12;;;;;;;2.33;1.88;;;;;;;;;;4997732;28;20029;-72
2022/04/06 09:00:37;;;;;;;4.57;2.22;;;;;;;;;;4999687;28;20048;-73
2022/04/06 09:03:06;;;;;;;6.70;2.70;;;;;;;;;;4988428;28;20544;-73
2022/04/06 09:05:35;;;;;;;6.22;3.00;;;;;;;;;;5008113;28;20034;-74
2022/04/06 09:08:03;;;;;;;8.25;2.25;;;;;;;;;;4987754;28;20038;-74
2022/04/06 09:10:33;;;;;;;2.83;2.10;;;;;;;;;;5005569;28;20236;-73
2022/04/06 09:13:20;;;;;;;4.93;2.20;;;;;;;;;;4983786;28;20045;-73
2022/04/06 09:15:47;;;;;;;3.28;2.13;;;;;;;;;;4998075;28;20022;-73
2022/04/06 09:18:14;;;;;;;4.57;2.42;;;;;;;;;;5006834;28;20378;-73
2022/04/06 09:20:42;;;;;;;3.50;2.15;;;;;;;;;;5013552;28;20029;-74
2022/04/06 09:23:09;;;;;;;1.88;1.70;;;;;;;;;;4989228;28;20038;-71
2022/04/06 09:25:53;;;;;;;2.35;1.83;;;;;;;;;;5010201;28;20060;-74
2022/04/06 09:28:19;;;;;;;2.35;1.83;;;;;;;;;;5007280;28;20906;-74
2022/04/06 09:30:46;;;;;;;4.03;2.03;;;;;;;;;;5009452;28;20167;-73
2022/04/06 09:33:21;;;;;;;5.03;1.75;;;;;;;;;;4998263;28;20571;-75
2022/04/06 09:35:48;;;;;;;3.13;1.70;;;;;;;;;;4999640;28;20385;-74
2022/04/06 09:38:22;;;;;;;2.00;1.80;;;;;;;;;;4999037;28;20096;-74
2022/04/06 09:41:09;;;;;;;1.65;1.50;;;;;;;;;;4996035;28;20371;-74
2022/04/06 09:43:36;;;;;;;4.80;1.88;;;;;;;;;;5002840;28;20030;-73
2022/04/06 09:49:20;;;;;;;5.30;2.10;;;;;;;;;;4998002;28;20044;-73
2022/04/06 09:51:53;;;;;;;3.45;1.80;;;;;;;;;;4992580;28;20030;-73
2022/04/06 09:54:23;;;;;;;2.67;1.55;;;;;;;;;;4995936;28;20096;-74
2022/04/06 09:56:55;;;;;;;2.35;1.48;;;;;;;;;;5002239;28;20037;-75
2022/04/06 09:59:23;;;;;;;3.53;1.75;;;;;;;;;;4991716;28;20049;-74
2022/04/06 10:01:57;;;;;;;4.03;1.52;;;;;;;;;;5000466;28;20084;-74
2022/04/06 10:04:25;;;;;;;2.05;1.58;;;;;;;;;;5003952;28;20042;-74
2022/04/06 10:06:52;;;;;;;3.22;1.42;;;;;;;;;;5010264;28;20022;-74
2022/04/06 10:09:20;;;;;;;5.13;3.00;;;;;;;;;;4994466;28;20065;-75
2022/04/06 10:11:49;;;;;;;3.45;1.48;;;;;;;;;;4994042;28;20042;-74
2022/04/06 10:14:16;;;;;;;3.50;1.65;;;;;;;;;;4997796;28;20382;-75
2022/04/06 10:16:42;;;;;;;2.15;1.55;;;;;;;;;;5005947;28;20033;-76
2022/04/06 10:19:13;;;;;;;2.17;1.75;;;;;;;;;;5008344;28;20446;-74
2022/04/06 10:22:24;;;;;;;2.10;1.50;;;;;;;;;;5007568;28;20470;-74
2022/04/06 10:25:02;;;;;;;1.25;1.15;;;;;;;;;;5007132;28;20313;-75
2022/04/06 10:27:35;;;;;;;2.55;1.13;;;;;;;;;;4990490;28;20091;-75
2022/04/06 10:30:26;;;;;;;1.90;1.40;;;;;;;;;;4996984;28;20103;-75
2022/04/06 10:33:00;;;;;;;2.38;1.52;;;;;;;;;;5003938;28;20052;-74
2022/04/06 10:35:34;;;;;;;1.65;1.17;;;;;;;;;;4991158;28;20034;-73
2022/04/06 10:38:06;;;;;;;3.05;1.30;;;;;;;;;;4995413;28;20111;-74
2022/04/06 10:40:43;;;;;;;5.57;1.70;;;;;;;;;;4994131;28;20034;-74
2022/04/06 10:43:34;;;;;;;2.50;1.70;;;;;;;;;;4986345;28;20118;-73
2022/04/06 10:46:32;;;;;;;3.58;1.30;;;;;;;;;;5006497;28;20034;-74
2022/04/06 10:49:06;;;;;;;4.13;1.15;;;;;;;;;;5008065;28;20052;-74
2022/04/06 10:51:34;;;;;;;1.70;1.30;;;;;;;;;;5006991;28;20486;-74
2022/04/06 10:54:21;;;;;;;2.03;1.25;;;;;;;;;;5008991;28;20100;-74
2022/04/06 10:56:50;;;;;;;1.38;1.15;;;;;;;;;;5009524;28;20037;-75
2022/04/06 10:59:17;;;;;;;2.90;1.30;;;;;;;;;;4990330;28;20037;-76
2022/04/06 11:01:48;;;;;;;1.45;1.23;;;;;;;;;;5005606;28;20037;-75
2022/04/06 11:04:24;;;;;;;2.67;1.48;;;;;;;;;;4998193;28;20042;-74
2022/04/06 11:06:56;;;;;;;3.47;1.75;;;;;;;;;;4996963;28;20034;-74
2022/04/06 11:12:29;;;;;;;2.35;1.70;;;;;;;;;;4995676;28;20623;-74
2022/04/06 11:14:57;;;;;;;2.25;1.50;;;;;;;;;;5009649;28;20041;-74
2022/04/06 11:17:32;;;;;;;3.65;1.75;;;;;;;;;;5000807;28;20520;-74
2022/04/06 11:20:00;;;;;;;2.85;1.77;;;;;;;;;;4994076;28;20052;-73
2022/04/06 11:22:29;;;;;;;2.00;1.58;;;;;;;;;;5008417;28;20026;-74
2022/04/06 11:24:59;;;;;;;3.60;1.75;;;;;;;;;;5012207;28;20486;-74
2022/04/06 11:27:34;;;;;;;2.60;1.67;;;;;;;;;;4999126;28;20034;-74
2022/04/06 11:30:12;;;;;;;4.97;1.85;;;;;;;;;;5005902;28;20643;-74
2022/04/06 11:32:43;;;;;;;4.47;1.77;;;;;;;;;;5011495;28;20056;-73
2022/04/06 11:35:17;;;;;;;2.55;1.85;;;;;;;;;;5004935;28;20042;-74
2022/04/06 11:37:47;;;;;;;2.60;1.83;;;;;;;;;;5000629;28;20109;-73
2022/04/06 11:40:24;;;;;;;1.60;1.50;;;;;;;;;;5001874;28;20042;-74
2022/04/06 11:42:54;;;;;;;1.95;1.63;;;;;;;;;;5004796;28;20044;-73
2022/04/06 11:45:32;;;;;;;2.85;1.60;;;;;;;;;;5004327;28;20029;-74
2022/04/06 11:48:05;;;;;;;2.10;1.73;;;;;;;;;;4994032;28;20022;-73
2022/04/06 11:50:34;;;;;;;5.68;1.90;;;;;;;;;;4991197;28;20041;-73
2022/04/06 11:53:09;;;;;;;2.75;1.65;;;;;;;;;;5002180;28;20092;-74
2022/04/06 11:55:54;;;;;;;3.63;2.08;;;;;;;;;;4994582;28;20026;-74
2022/04/06 11:58:38;;;;;;;5.57;1.88;;;;;;;;;;5008452;28;20036;-74
2022/04/06 12:01:14;;;;;;;2.08;1.55;;;;;;;;;;5012187;28;20540;-73
2022/04/06 12:03:42;;;;;;;3.08;1.90;;;;;;;;;;4990351;28;20463;-74
2022/04/06 12:06:10;;;;;;;5.03;2.50;;;;;;;;;;4988523;28;20084;-73
2022/04/06 12:08:58;;;;;;;3.17;1.70;;;;;;;;;;5003767;28;20083;-75
2022/04/06 12:11:24;;;;;;;3.78;1.55;;;;;;;;;;5007030;28;20031;-74
2022/04/06 12:13:51;;;;;;;4.95;2.10;;;;;;;;;;5005100;28;20053;-76
2022/04/06 12:16:23;;;;;;;3.35;2.53;;;;;;;;;;4997478;28;20026;-75
2022/04/06 12:18:53;;;;;;;2.45;1.30;;;;;;;;;;4996263;28;20056;-72
2022/04/06 12:21:29;;;;;;;1.73;1.63;;;;;;;;;;4999998;28;20033;-74
2022/04/06 12:23:56;;;;;;;3.08;1.80;;;;;;;;;;4991881;28;20092;-74
2022/04/06 12:26:43;;;;;;;1.58;1.25;;;;;;;;;;4999064;28;20026;-74
2022/04/06 12:29:18;;;;;;;2.28;1.50;;;;;;;;;;5004060;28;20041;-73
2022/04/06 12:31:45;;;;;;;2.70;1.85;;;;;;;;;;4981219;28;20062;-74
2022/04/06 12:34:35;;;;;;;2.75;1.40;;;;;;;;;;4993020;28;20193;-72
2022/04/06 12:39:54;;;;;;;4.53;1.58;;;;;;;;;;4992795;28;20096;-73
2022/04/06 12:42:22;;;;;;;2.78;1.67;;;;;;;;;;5009633;28;20092;-73
2022/04/06 12:44:58;;;;;;;1.50;1.38;;;;;;;;;;4990599;28;20064;-74
2022/04/06 12:47:26;;;;;;;3.10;1.70;;;;;;;;;;5008991;28;20034;-75
2022/04/06 12:50:27;;;;;;;2.92;1.88;;;;;;;;;;4992545;28;20133;-75
2022/04/06 12:53:10;;;;;;;4.22;1.98;;;;;;;;;;4995631;28;20378;-74
2022/04/06 12:55:37;;;;;;;3.55;1.77;;;;;;;;;;5011894;28;20037;-74
2022/04/06 12:58:22;;;;;;;9.27;3.35;;;;;;;;;;5012292;28;20084;-74
2022/04/06 13:00:59;;;;;;;2.85;1.45;;;;;;;;;;5011469;28;20034;-74
2022/04/06 13:03:26;;;;;;;5.22;2.05;;;;;;;;;;4985216;28;20038;-74
2022/04/06 13:05:52;;;;;;;2.20;1.95;;;;;;;;;;5010249;28;20081;-73
2022/04/06 13:08:22;;;;;;;2.35;1.73;;;;;;;;;;5011978;28;20056;-75
2022/04/06 13:11:05;;;;;;;3.35;2.30;;;;;;;;;;4997406;28;20050;-74
2022/04/06 13:13:31;;;;;;;3.53;1.60;;;;;;;;;;5021006;28;20092;-75
2022/04/06 13:16:00;;;;;;;2.15;1.90;;;;;;;;;;5004764;28;20363;-75
2022/04/06 13:18:27;;;;;;;3.25;1.45;;;;;;;;;;5021532;28;20054;-72
2022/04/06 13:20:54;;;;;;;5.82;1.63;;;;;;;;;;5022370;28;20034;-74
2022/04/06 13:23:20;;;;;;;2.15;1.27;;;;;;;;;;5021284;28;20022;-75
2022/04/06 13:25:49;;;;;;;4.63;1.38;;;;;;;;;;5006185;28;20239;-75
2022/04/06 13:28:15;;;;;;;3.58;1.50;;;;;;;;;;5022913;28;20432;-74
2022/04/06 13:30:41;;;;;;;2.17;1.40;;;;;;;;;;5023079;28;20026;-74
2022/04/06 13:33:15;;;;;;;4.30;2.28;;;;;;;;;;5022236;28;20084;-75
2022/04/06 13:35:43;;;;;;;1.70;1.48;;;;;;;;;;5022036;28;20075;-73
2022/04/06 13:38:09;;;;;;;2.08;1.50;;;;;;;;;;4999998;28;20561;-73
2022/04/06 13:40:35;;;;;;;2.80;1.13;;;;;;;;;;5005048;28;20497;-74
2022/04/06 13:43:01;;;;;;;2.42;1.70;;;;;;;;;;5020318;28;20018;-74
2022/04/06 13:45:29;;;;;;;3.20;1.75;;;;;;;;;;5022158;28;20038;-74
2022/04/06 13:47:55;;;;;;;3.47;1.42;;;;;;;;;;5002735;28;20026;-75
2022/04/06 13:50:24;;;;;;;1.65;1.13;;;;;;;;;;5000134;28;20022;-75
2022/04/06 13:52:56;;;;;;;1.40;1.30;;;;;;;;;;5006185;28;20382;-76
2022/04/06 13:55:22;;;;;;;;;;;;;;;;;;5022463;28;20112;-75
2022/04/06 13:57:55;;;;;;;1.45;1.15;;;;;;;;;;5021106;28;20304;-75
2022/04/06 14:00:21;;;;;;;1.45;1.20;;;;;;;;;;5017279;28;20152;-75
2022/04/06 14:02:50;;;;;;;4.07;1.90;;;;;;;;;;4998021;28;20030;-74
2022/04/06 14:05:28;;;;;;;2.38;1.10;;;;;;;;;;5022667;28;20026;-74
2022/04/06 14:07:56;;;;;;;3.25;2.47;;;;;;;;;;5017779;28;20025;-74
2022/04/06 14:10:23;;;;;;;2.00;1.30;;;;;;;;;;5018853;28;20030;-74
2022/04/06 14:12:49;;;;;;;1.15;1.00;;;;;;;;;;5003405;28;20105;-74
2022/04/06 14:15:16;;;;;;;1.10;1.00;;;;;;;;;;5004252;28;20658;-76
2022/04/06 14:17:42;;;;;;;3.42;1.33;;;;;;;;;;5005555;28;20121;-75
2022/04/06 14:20:11;;;;;;;3.00;1.35;;;;;;;;;;5004068;28;20053;-76
2022/04/06 14:22:37;;;;;;;3.40;1.63;;;;;;;;;;5017406;28;20034;-75
2022/04/06 14:25:18;;;;;;;2.10;1.23;;;;;;;;;;4993600;28;20034;-74
2022/04/06 14:27:50;;;;;;;3.25;0.88;;;;;;;;;;5016600;28;20041;-75
2022/04/06 14:30:19;;;;;;;1.13;1.13;;;;;;;;;;5016441;28;20530;-75
2022/04/06 14:32:49;;;;;;;2.15;1.33;;;;;;;;;;5016618;28;20052;-75
2022/04/06 14:35:17;;;;;;;1.30;1.20;;;;;;;;;;5007647;28;20014;-76
2022/04/06 14:37:43;;;;;;;1.42;1.10;;;;;;;;;;5014379;28;20477;-74
2022/04/06 14:40:14;;;;;;;1.80;1.40;;;;;;;;;;5013922;28;20021;-74
2022/04/06 14:42:43;;;;;;;4.25;0.90;;;;;;;;;;5005959;28;20033;-74
2022/04/06 14:45:10;;;;;;;1.50;1.00;;;;;;;;;;5023145;28;20261;-74
2022/04/06 14:47:43;;;;;;;2.42;1.00;;;;;;;;;;5008237;28;20474;-75
2022/04/06 14:50:10;;;;;;;1.20;0.93;;;;;;;;;;5005440;28;20671;-74
2022/04/06 14:52:42;;;;;;;0.55;0.55;;;;;;;;;;5023391;28;20026;-75
2022/04/06 14:55:10;;;;;;;2.25;0.90;;;;;;;;;;4975002;28;20018;-75
2022/04/06 14:57:40;;;;;;;1.40;0.98;;;;;;;;;;5008257;28;20089;-76
2022/04/06 15:00:07;;;;;;;0.90;0.70;;;;;;;;;;4990274;28;20026;-75
2022/04/06 15:02:33;;;;;;;1.35;1.25;;;;;;;;;;5005637;28;20036;-75
2022/04/06 15:04:59;;;;;;;3.47;1.48;;;;;;;;;;5023385;28;20026;-75
2022/04/06 15:07:26;;;;;;;2.00;0.63;;;;;;;;;;5004750;28;20945;-74